sensor_id;sensor_type;location;lat;lon;timestamp;P1;durP1;ratioP1;P2;durP2;ratioP2
7985;SDS011;4038;42.612;23.066;2023-10-08T00:02:08;26.80;;;24.53;;
7985;SDS011;4038;42.612;23.066;2023-10-08T00:04:35;25.63;;;23.30;;
7985;SDS011;4038;42.612;23.066;2023-10-08T00:07:03;24.57;;;22.77;;
7985;SDS011;4038;42.612;23.066;2023-10-08T00:09:33;23.47;;;21.67;;
7985;SDS011;4038;42.612;23.066;2023-10-08T00:12:02;24.57;;;22.67;;
7985;SDS011;4038;42.612;23.066;2023-10-08T00:14:30;24.87;;;22.77;;
7985;SDS011;4038;42.612;23.066;2023-10-08T00:16:57;23.80;;;22.10;;
7985;SDS011;4038;42.612;23.066;2023-10-08T00:19:23;23.87;;;22.17;;
7985;SDS011;4038;42.612;23.066;2023-10-08T00:21:49;24.27;;;22.27;;
7985;SDS011;4038;42.612;23.066;2023-10-08T00:24:18;23.40;;;21.60;;
7985;SDS011;4038;42.612;23.066;2023-10-08T00:26:43;24.40;;;22.53;;
7985;SDS011;4038;42.612;23.066;2023-10-08T00:29:09;24.20;;;22.35;;
7985;SDS011;4038;42.612;23.066;2023-10-08T00:31:42;24.57;;;22.57;;
7985;SDS011;4038;42.612;23.066;2023-10-08T00:34:10;24.50;;;22.70;;
7985;SDS011;4038;42.612;23.066;2023-10-08T00:36:42;24.20;;;22.50;;
7985;SDS011;4038;42.612;23.066;2023-10-08T00:39:09;24.27;;;22.37;;
7985;SDS011;4038;42.612;23.066;2023-10-08T00:41:45;23.93;;;21.93;;
7985;SDS011;4038;42.612;23.066;2023-10-08T00:44:12;24.00;;;22.27;;
7985;SDS011;4038;42.612;23.066;2023-10-08T00:46:40;24.97;;;23.07;;
7985;SDS011;4038;42.612;23.066;2023-10-08T00:49:19;24.40;;;22.47;;
7985;SDS011;4038;42.612;23.066;2023-10-08T00:51:47;23.50;;;21.77;;
7985;SDS011;4038;42.612;23.066;2023-10-08T00:54:13;24.03;;;22.30;;
7985;SDS011;4038;42.612;23.066;2023-10-08T00:56:44;29.17;;;26.20;;
7985;SDS011;4038;42.612;23.066;2023-10-08T00:59:15;27.30;;;24.87;;
7985;SDS011;4038;42.612;23.066;2023-10-08T01:01:42;26.17;;;23.90;;
7985;SDS011;4038;42.612;23.066;2023-10-08T01:04:15;25.40;;;23.00;;
7985;SDS011;4038;42.612;23.066;2023-10-08T01:06:41;27.17;;;24.40;;
7985;SDS011;4038;42.612;23.066;2023-10-08T01:09:07;26.23;;;23.93;;
7985;SDS011;4038;42.612;23.066;2023-10-08T01:11:43;24.93;;;22.83;;
7985;SDS011;4038;42.612;23.066;2023-10-08T01:14:14;24.10;;;22.13;;
7985;SDS011;4038;42.612;23.066;2023-10-08T01:16:46;23.57;;;21.67;;
7985;SDS011;4038;42.612;23.066;2023-10-08T01:19:17;24.00;;;22.13;;
7985;SDS011;4038;42.612;23.066;2023-10-08T01:21:44;23.17;;;21.47;;
7985;SDS011;4038;42.612;23.066;2023-10-08T01:24:10;24.97;;;22.53;;
7985;SDS011;4038;42.612;23.066;2023-10-08T01:26:39;24.53;;;22.50;;
7985;SDS011;4038;42.612;23.066;2023-10-08T01:29:09;23.73;;;21.70;;
7985;SDS011;4038;42.612;23.066;2023-10-08T01:31:36;26.20;;;24.00;;
7985;SDS011;4038;42.612;23.066;2023-10-08T01:34:02;24.87;;;22.77;;
7985;SDS011;4038;42.612;23.066;2023-10-08T01:36:30;25.93;;;23.37;;
7985;SDS011;4038;42.612;23.066;2023-10-08T01:38:56;26.60;;;24.13;;
7985;SDS011;4038;42.612;23.066;2023-10-08T01:41:22;25.63;;;23.53;;
7985;SDS011;4038;42.612;23.066;2023-10-08T01:43:54;25.67;;;23.35;;
7985;SDS011;4038;42.612;23.066;2023-10-08T01:46:20;25.50;;;23.37;;
7985;SDS011;4038;42.612;23.066;2023-10-08T01:48:47;25.20;;;23.20;;
7985;SDS011;4038;42.612;23.066;2023-10-08T01:51:14;26.08;;;23.92;;
7985;SDS011;4038;42.612;23.066;2023-10-08T01:53:50;26.47;;;24.37;;
7985;SDS011;4038;42.612;23.066;2023-10-08T01:56:20;26.83;;;24.47;;
7985;SDS011;4038;42.612;23.066;2023-10-08T01:58:45;27.17;;;24.47;;
7985;SDS011;4038;42.612;23.066;2023-10-08T02:01:11;25.63;;;23.50;;
7985;SDS011;4038;42.612;23.066;2023-10-08T02:03:38;25.67;;;23.63;;
7985;SDS011;4038;42.612;23.066;2023-10-08T02:06:03;26.10;;;23.63;;
7985;SDS011;4038;42.612;23.066;2023-10-08T02:08:31;26.03;;;23.70;;
7985;SDS011;4038;42.612;23.066;2023-10-08T02:10:57;26.80;;;24.03;;
7985;SDS011;4038;42.612;23.066;2023-10-08T02:13:22;26.53;;;24.13;;
7985;SDS011;4038;42.612;23.066;2023-10-08T02:15:51;25.93;;;23.77;;
7985;SDS011;4038;42.612;23.066;2023-10-08T02:18:19;27.50;;;24.13;;
7985;SDS011;4038;42.612;23.066;2023-10-08T02:20:46;25.97;;;23.37;;
7985;SDS011;4038;42.612;23.066;2023-10-08T02:23:13;26.80;;;24.00;;
7985;SDS011;4038;42.612;23.066;2023-10-08T02:25:39;26.77;;;23.67;;
7985;SDS011;4038;42.612;23.066;2023-10-08T02:28:07;26.60;;;24.00;;
7985;SDS011;4038;42.612;23.066;2023-10-08T02:30:34;26.60;;;24.00;;
7985;SDS011;4038;42.612;23.066;2023-10-08T02:33:01;26.33;;;23.87;;
7985;SDS011;4038;42.612;23.066;2023-10-08T02:35:27;26.87;;;24.37;;
7985;SDS011;4038;42.612;23.066;2023-10-08T02:37:52;27.03;;;24.37;;
7985;SDS011;4038;42.612;23.066;2023-10-08T02:40:20;24.57;;;22.40;;
7985;SDS011;4038;42.612;23.066;2023-10-08T02:42:52;25.63;;;23.27;;
7985;SDS011;4038;42.612;23.066;2023-10-08T02:45:24;25.93;;;23.63;;
7985;SDS011;4038;42.612;23.066;2023-10-08T02:47:50;25.30;;;23.20;;
7985;SDS011;4038;42.612;23.066;2023-10-08T02:50:18;25.43;;;23.10;;
7985;SDS011;4038;42.612;23.066;2023-10-08T02:52:44;25.50;;;23.10;;
7985;SDS011;4038;42.612;23.066;2023-10-08T02:55:09;25.87;;;23.27;;
7985;SDS011;4038;42.612;23.066;2023-10-08T02:57:48;25.17;;;22.83;;
7985;SDS011;4038;42.612;23.066;2023-10-08T03:00:15;26.27;;;23.67;;
7985;SDS011;4038;42.612;23.066;2023-10-08T03:02:46;25.87;;;23.37;;
7985;SDS011;4038;42.612;23.066;2023-10-08T03:05:12;25.90;;;23.70;;
7985;SDS011;4038;42.612;23.066;2023-10-08T03:07:42;27.00;;;24.43;;
7985;SDS011;4038;42.612;23.066;2023-10-08T03:10:10;26.60;;;24.27;;
7985;SDS011;4038;42.612;23.066;2023-10-08T03:12:45;27.80;;;25.03;;
7985;SDS011;4038;42.612;23.066;2023-10-08T03:15:14;27.67;;;24.77;;
7985;SDS011;4038;42.612;23.066;2023-10-08T03:18:03;27.13;;;24.43;;
7985;SDS011;4038;42.612;23.066;2023-10-08T03:20:43;29.13;;;25.83;;
7985;SDS011;4038;42.612;23.066;2023-10-08T03:23:14;28.93;;;25.80;;
7985;SDS011;4038;42.612;23.066;2023-10-08T03:25:53;27.70;;;24.83;;
7985;SDS011;4038;42.612;23.066;2023-10-08T03:28:34;32.70;;;25.57;;
7985;SDS011;4038;42.612;23.066;2023-10-08T03:31:00;28.53;;;24.33;;
7985;SDS011;4038;42.612;23.066;2023-10-08T03:33:35;27.00;;;24.33;;
7985;SDS011;4038;42.612;23.066;2023-10-08T03:36:05;29.00;;;26.30;;
7985;SDS011;4038;42.612;23.066;2023-10-08T03:38:59;27.00;;;24.30;;
7985;SDS011;4038;42.612;23.066;2023-10-08T03:41:34;27.50;;;24.77;;
7985;SDS011;4038;42.612;23.066;2023-10-08T03:44:05;28.93;;;26.37;;
7985;SDS011;4038;42.612;23.066;2023-10-08T03:46:32;26.47;;;23.93;;
7985;SDS011;4038;42.612;23.066;2023-10-08T03:49:04;25.57;;;23.03;;
7985;SDS011;4038;42.612;23.066;2023-10-08T03:51:39;26.47;;;24.10;;
7985;SDS011;4038;42.612;23.066;2023-10-08T03:54:08;26.53;;;24.10;;
7985;SDS011;4038;42.612;23.066;2023-10-08T03:56:39;25.60;;;23.30;;
7985;SDS011;4038;42.612;23.066;2023-10-08T03:59:10;25.87;;;23.77;;
7985;SDS011;4038;42.612;23.066;2023-10-08T04:01:44;25.70;;;23.60;;
7985;SDS011;4038;42.612;23.066;2023-10-08T04:04:10;25.80;;;23.70;;
7985;SDS011;4038;42.612;23.066;2023-10-08T04:06:39;27.30;;;24.83;;
7985;SDS011;4038;42.612;23.066;2023-10-08T04:09:13;27.07;;;24.53;;
7985;SDS011;4038;42.612;23.066;2023-10-08T04:11:45;25.80;;;23.67;;
7985;SDS011;4038;42.612;23.066;2023-10-08T04:14:14;25.60;;;23.30;;
7985;SDS011;4038;42.612;23.066;2023-10-08T04:16:41;25.33;;;23.10;;
7985;SDS011;4038;42.612;23.066;2023-10-08T04:19:07;27.70;;;25.00;;
7985;SDS011;4038;42.612;23.066;2023-10-08T04:21:33;26.20;;;23.80;;
7985;SDS011;4038;42.612;23.066;2023-10-08T04:24:01;26.53;;;23.93;;
7985;SDS011;4038;42.612;23.066;2023-10-08T04:26:30;27.40;;;24.63;;
7985;SDS011;4038;42.612;23.066;2023-10-08T04:28:57;27.20;;;24.47;;
7985;SDS011;4038;42.612;23.066;2023-10-08T04:31:26;29.40;;;26.50;;
7985;SDS011;4038;42.612;23.066;2023-10-08T04:34:08;27.57;;;24.90;;
7985;SDS011;4038;42.612;23.066;2023-10-08T04:36:35;30.13;;;27.03;;
7985;SDS011;4038;42.612;23.066;2023-10-08T04:39:03;28.10;;;25.40;;
7985;SDS011;4038;42.612;23.066;2023-10-08T04:41:41;28.53;;;25.83;;
7985;SDS011;4038;42.612;23.066;2023-10-08T04:44:10;28.57;;;25.97;;
7985;SDS011;4038;42.612;23.066;2023-10-08T04:46:42;28.40;;;25.80;;
7985;SDS011;4038;42.612;23.066;2023-10-08T04:49:10;27.93;;;25.47;;
7985;SDS011;4038;42.612;23.066;2023-10-08T04:51:48;29.93;;;26.77;;
7985;SDS011;4038;42.612;23.066;2023-10-08T04:54:17;29.13;;;26.40;;
7985;SDS011;4038;42.612;23.066;2023-10-08T04:56:43;25.93;;;23.63;;
7985;SDS011;4038;42.612;23.066;2023-10-08T04:59:09;27.53;;;24.83;;
7985;SDS011;4038;42.612;23.066;2023-10-08T05:01:37;29.60;;;26.87;;
7985;SDS011;4038;42.612;23.066;2023-10-08T05:04:34;29.13;;;26.13;;
7985;SDS011;4038;42.612;23.066;2023-10-08T05:07:12;30.10;;;27.00;;
7985;SDS011;4038;42.612;23.066;2023-10-08T05:10:07;31.37;;;28.40;;
7985;SDS011;4038;42.612;23.066;2023-10-08T05:12:33;36.33;;;26.57;;
7985;SDS011;4038;42.612;23.066;2023-10-08T05:15:16;31.03;;;28.07;;
7985;SDS011;4038;42.612;23.066;2023-10-08T05:17:42;30.83;;;27.87;;
7985;SDS011;4038;42.612;23.066;2023-10-08T05:20:14;31.07;;;27.30;;
7985;SDS011;4038;42.612;23.066;2023-10-08T05:22:59;32.67;;;29.10;;
7985;SDS011;4038;42.612;23.066;2023-10-08T05:25:43;31.42;;;28.40;;
7985;SDS011;4038;42.612;23.066;2023-10-08T05:28:43;30.40;;;27.60;;
7985;SDS011;4038;42.612;23.066;2023-10-08T05:31:26;31.25;;;27.88;;
7985;SDS011;4038;42.612;23.066;2023-10-08T05:34:09;30.15;;;27.20;;
7985;SDS011;4038;42.612;23.066;2023-10-08T05:36:41;30.15;;;27.20;;
7985;SDS011;4038;42.612;23.066;2023-10-08T05:39:35;32.35;;;27.17;;
7985;SDS011;4038;42.612;23.066;2023-10-08T05:42:04;30.42;;;27.27;;
7985;SDS011;4038;42.612;23.066;2023-10-08T05:44:42;31.63;;;28.35;;
7985;SDS011;4038;42.612;23.066;2023-10-08T05:47:31;37.30;;;29.45;;
7985;SDS011;4038;42.612;23.066;2023-10-08T05:49:57;33.95;;;29.23;;
7985;SDS011;4038;42.612;23.066;2023-10-08T05:52:41;35.63;;;30.70;;
7985;SDS011;4038;42.612;23.066;2023-10-08T05:55:18;37.60;;;29.83;;
7985;SDS011;4038;42.612;23.066;2023-10-08T05:58:05;35.88;;;30.02;;
7985;SDS011;4038;42.612;23.066;2023-10-08T06:00:45;33.58;;;29.88;;
7985;SDS011;4038;42.612;23.066;2023-10-08T06:03:31;34.63;;;29.60;;
7985;SDS011;4038;42.612;23.066;2023-10-08T06:06:12;32.88;;;29.38;;
7985;SDS011;4038;42.612;23.066;2023-10-08T06:08:38;31.70;;;28.23;;
7985;SDS011;4038;42.612;23.066;2023-10-08T06:11:23;34.65;;;30.80;;
7985;SDS011;4038;42.612;23.066;2023-10-08T06:14:07;34.55;;;30.73;;
7985;SDS011;4038;42.612;23.066;2023-10-08T06:16:42;34.80;;;30.08;;
7985;SDS011;4038;42.612;23.066;2023-10-08T06:19:12;37.33;;;30.85;;
7985;SDS011;4038;42.612;23.066;2023-10-08T06:21:40;36.30;;;30.10;;
7985;SDS011;4038;42.612;23.066;2023-10-08T06:24:08;36.95;;;29.30;;
7985;SDS011;4038;42.612;23.066;2023-10-08T06:26:37;33.97;;;30.13;;
7985;SDS011;4038;42.612;23.066;2023-10-08T06:29:24;38.50;;;29.13;;
7985;SDS011;4038;42.612;23.066;2023-10-08T06:31:55;34.33;;;29.38;;
7985;SDS011;4038;42.612;23.066;2023-10-08T06:34:22;39.25;;;29.05;;
7985;SDS011;4038;42.612;23.066;2023-10-08T06:36:52;38.33;;;30.05;;
7985;SDS011;4038;42.612;23.066;2023-10-08T06:39:19;31.90;;;28.60;;
7985;SDS011;4038;42.612;23.066;2023-10-08T06:41:50;42.03;;;33.85;;
7985;SDS011;4038;42.612;23.066;2023-10-08T06:44:19;40.17;;;31.35;;
7985;SDS011;4038;42.612;23.066;2023-10-08T06:46:45;33.97;;;30.15;;
7985;SDS011;4038;42.612;23.066;2023-10-08T06:49:11;33.78;;;30.17;;
7985;SDS011;4038;42.612;23.066;2023-10-08T06:51:39;38.40;;;31.27;;
7985;SDS011;4038;42.612;23.066;2023-10-08T06:54:12;41.38;;;31.02;;
7985;SDS011;4038;42.612;23.066;2023-10-08T06:56:43;37.33;;;31.42;;
7985;SDS011;4038;42.612;23.066;2023-10-08T06:59:14;40.80;;;34.78;;
7985;SDS011;4038;42.612;23.066;2023-10-08T07:01:42;38.33;;;30.85;;
7985;SDS011;4038;42.612;23.066;2023-10-08T07:04:11;39.55;;;34.97;;
7985;SDS011;4038;42.612;23.066;2023-10-08T07:06:41;52.97;;;35.45;;
7985;SDS011;4038;42.612;23.066;2023-10-08T07:09:09;46.00;;;33.83;;
7985;SDS011;4038;42.612;23.066;2023-10-08T07:11:48;45.30;;;32.00;;
7985;SDS011;4038;42.612;23.066;2023-10-08T07:14:19;41.22;;;31.90;;
7985;SDS011;4038;42.612;23.066;2023-10-08T07:16:45;50.08;;;36.90;;
7985;SDS011;4038;42.612;23.066;2023-10-08T07:19:13;51.13;;;34.50;;
7985;SDS011;4038;42.612;23.066;2023-10-08T07:21:44;60.13;;;35.47;;
7985;SDS011;4038;42.612;23.066;2023-10-08T07:24:14;59.00;;;35.28;;
7985;SDS011;4038;42.612;23.066;2023-10-08T07:26:42;64.68;;;35.67;;
7985;SDS011;4038;42.612;23.066;2023-10-08T07:29:15;56.03;;;33.53;;
7985;SDS011;4038;42.612;23.066;2023-10-08T07:31:47;60.08;;;33.95;;
7985;SDS011;4038;42.612;23.066;2023-10-08T07:34:18;64.50;;;33.13;;
7985;SDS011;4038;42.612;23.066;2023-10-08T07:36:50;60.75;;;34.85;;
7985;SDS011;4038;42.612;23.066;2023-10-08T07:39:17;57.25;;;34.33;;
7985;SDS011;4038;42.612;23.066;2023-10-08T07:41:56;63.70;;;35.05;;
7985;SDS011;4038;42.612;23.066;2023-10-08T07:44:24;57.60;;;34.17;;
7985;SDS011;4038;42.612;23.066;2023-10-08T07:46:51;54.25;;;33.80;;
7985;SDS011;4038;42.612;23.066;2023-10-08T07:49:19;77.55;;;36.08;;
7985;SDS011;4038;42.612;23.066;2023-10-08T07:51:45;91.50;;;38.83;;
7985;SDS011;4038;42.612;23.066;2023-10-08T07:54:20;119.20;;;41.17;;
7985;SDS011;4038;42.612;23.066;2023-10-08T07:56:50;139.13;;;45.67;;
7985;SDS011;4038;42.612;23.066;2023-10-08T07:59:43;149.95;;;48.72;;
7985;SDS011;4038;42.612;23.066;2023-10-08T08:02:11;160.27;;;55.10;;
7985;SDS011;4038;42.612;23.066;2023-10-08T08:04:38;106.15;;;45.58;;
7985;SDS011;4038;42.612;23.066;2023-10-08T08:07:15;91.05;;;38.60;;
7985;SDS011;4038;42.612;23.066;2023-10-08T08:09:44;72.82;;;37.15;;
7985;SDS011;4038;42.612;23.066;2023-10-08T08:12:20;47.13;;;30.65;;
7985;SDS011;4038;42.612;23.066;2023-10-08T08:14:46;43.85;;;29.83;;
7985;SDS011;4038;42.612;23.066;2023-10-08T08:17:13;32.17;;;26.55;;
7985;SDS011;4038;42.612;23.066;2023-10-08T08:19:42;31.08;;;26.35;;
7985;SDS011;4038;42.612;23.066;2023-10-08T08:22:10;32.42;;;25.20;;
7985;SDS011;4038;42.612;23.066;2023-10-08T08:24:59;33.28;;;25.40;;
7985;SDS011;4038;42.612;23.066;2023-10-08T08:27:40;27.30;;;24.58;;
7985;SDS011;4038;42.612;23.066;2023-10-08T08:30:09;28.17;;;24.90;;
7985;SDS011;4038;42.612;23.066;2023-10-08T08:32:38;25.00;;;23.10;;
7985;SDS011;4038;42.612;23.066;2023-10-08T08:35:08;26.50;;;23.98;;
7985;SDS011;4038;42.612;23.066;2023-10-08T08:37:35;26.38;;;23.85;;
7985;SDS011;4038;42.612;23.066;2023-10-08T08:40:04;25.17;;;22.77;;
7985;SDS011;4038;42.612;23.066;2023-10-08T08:42:47;27.13;;;24.70;;
7985;SDS011;4038;42.612;23.066;2023-10-08T08:45:22;26.13;;;23.77;;
7985;SDS011;4038;42.612;23.066;2023-10-08T08:47:51;27.15;;;24.63;;
7985;SDS011;4038;42.612;23.066;2023-10-08T08:50:18;27.98;;;25.23;;
7985;SDS011;4038;42.612;23.066;2023-10-08T08:52:44;25.90;;;23.40;;
7985;SDS011;4038;42.612;23.066;2023-10-08T08:55:13;23.92;;;22.15;;
7985;SDS011;4038;42.612;23.066;2023-10-08T08:57:42;26.60;;;24.00;;
7985;SDS011;4038;42.612;23.066;2023-10-08T09:00:13;27.05;;;24.15;;
7985;SDS011;4038;42.612;23.066;2023-10-08T09:02:39;26.55;;;24.08;;
7985;SDS011;4038;42.612;23.066;2023-10-08T09:05:06;26.25;;;23.80;;
7985;SDS011;4038;42.612;23.066;2023-10-08T09:10:20;25.27;;;23.05;;
7985;SDS011;4038;42.612;23.066;2023-10-08T09:12:53;23.75;;;22.00;;
7985;SDS011;4038;42.612;23.066;2023-10-08T09:15:19;25.52;;;23.17;;
7985;SDS011;4038;42.612;23.066;2023-10-08T09:17:47;24.33;;;22.52;;
7985;SDS011;4038;42.612;23.066;2023-10-08T09:20:14;25.60;;;23.55;;
7985;SDS011;4038;42.612;23.066;2023-10-08T09:22:39;25.15;;;23.02;;
7985;SDS011;4038;42.612;23.066;2023-10-08T09:25:04;70.90;;;29.02;;
7985;SDS011;4038;42.612;23.066;2023-10-08T09:27:32;24.35;;;22.25;;
7985;SDS011;4038;42.612;23.066;2023-10-08T09:29:58;24.40;;;22.48;;
7985;SDS011;4038;42.612;23.066;2023-10-08T09:32:24;22.52;;;21.02;;
7985;SDS011;4038;42.612;23.066;2023-10-08T09:34:52;24.05;;;22.05;;
7985;SDS011;4038;42.612;23.066;2023-10-08T09:37:18;24.02;;;22.33;;
7985;SDS011;4038;42.612;23.066;2023-10-08T09:39:47;23.75;;;21.98;;
7985;SDS011;4038;42.612;23.066;2023-10-08T09:42:14;23.02;;;21.33;;
7985;SDS011;4038;42.612;23.066;2023-10-08T09:44:39;23.27;;;21.58;;
7985;SDS011;4038;42.612;23.066;2023-10-08T09:47:05;22.67;;;20.92;;
7985;SDS011;4038;42.612;23.066;2023-10-08T09:49:32;23.67;;;21.88;;
7985;SDS011;4038;42.612;23.066;2023-10-08T09:52:04;24.00;;;22.20;;
7985;SDS011;4038;42.612;23.066;2023-10-08T09:54:35;24.10;;;22.20;;
7985;SDS011;4038;42.612;23.066;2023-10-08T09:57:07;23.15;;;21.35;;
7985;SDS011;4038;42.612;23.066;2023-10-08T09:59:35;23.17;;;21.58;;
7985;SDS011;4038;42.612;23.066;2023-10-08T10:02:02;24.27;;;22.27;;
7985;SDS011;4038;42.612;23.066;2023-10-08T10:04:30;24.48;;;22.55;;
7985;SDS011;4038;42.612;23.066;2023-10-08T10:07:07;42.20;;;24.83;;
7985;SDS011;4038;42.612;23.066;2023-10-08T10:09:37;25.08;;;22.90;;
7985;SDS011;4038;42.612;23.066;2023-10-08T10:12:15;24.77;;;23.02;;
7985;SDS011;4038;42.612;23.066;2023-10-08T10:14:46;24.70;;;22.40;;
7985;SDS011;4038;42.612;23.066;2023-10-08T10:17:20;25.17;;;23.25;;
7985;SDS011;4038;42.612;23.066;2023-10-08T10:19:53;24.60;;;22.65;;
7985;SDS011;4038;42.612;23.066;2023-10-08T10:22:42;26.13;;;23.85;;
7985;SDS011;4038;42.612;23.066;2023-10-08T10:25:09;25.00;;;22.90;;
7985;SDS011;4038;42.612;23.066;2023-10-08T10:30:16;23.10;;;21.30;;
7985;SDS011;4038;42.612;23.066;2023-10-08T10:32:44;24.00;;;22.13;;
7985;SDS011;4038;42.612;23.066;2023-10-08T10:35:14;23.83;;;21.98;;
7985;SDS011;4038;42.612;23.066;2023-10-08T10:37:42;23.92;;;22.13;;
7985;SDS011;4038;42.612;23.066;2023-10-08T10:40:19;24.27;;;22.52;;
7985;SDS011;4038;42.612;23.066;2023-10-08T10:42:58;24.85;;;22.65;;
7985;SDS011;4038;42.612;23.066;2023-10-08T10:45:28;24.88;;;22.95;;
7985;SDS011;4038;42.612;23.066;2023-10-08T10:48:09;23.27;;;21.58;;
7985;SDS011;4038;42.612;23.066;2023-10-08T10:50:57;24.52;;;22.17;;
7985;SDS011;4038;42.612;23.066;2023-10-08T10:53:31;23.80;;;21.80;;
7985;SDS011;4038;42.612;23.066;2023-10-08T10:56:13;23.73;;;21.83;;
7985;SDS011;4038;42.612;23.066;2023-10-08T10:58:58;23.67;;;21.75;;
7985;SDS011;4038;42.612;23.066;2023-10-08T11:01:31;24.42;;;22.35;;
7985;SDS011;4038;42.612;23.066;2023-10-08T11:04:09;25.02;;;22.60;;
7985;SDS011;4038;42.612;23.066;2023-10-08T11:06:41;24.35;;;22.13;;
7985;SDS011;4038;42.612;23.066;2023-10-08T11:09:10;23.85;;;21.75;;
7985;SDS011;4038;42.612;23.066;2023-10-08T11:11:42;23.83;;;22.02;;
7985;SDS011;4038;42.612;23.066;2023-10-08T11:14:16;22.90;;;21.02;;
7985;SDS011;4038;42.612;23.066;2023-10-08T11:16:44;25.35;;;22.88;;
7985;SDS011;4038;42.612;23.066;2023-10-08T11:19:10;22.90;;;21.20;;
7985;SDS011;4038;42.612;23.066;2023-10-08T11:21:50;23.30;;;21.25;;
7985;SDS011;4038;42.612;23.066;2023-10-08T11:24:31;23.30;;;21.13;;
7985;SDS011;4038;42.612;23.066;2023-10-08T11:26:59;23.13;;;21.23;;
7985;SDS011;4038;42.612;23.066;2023-10-08T11:29:41;23.27;;;21.30;;
7985;SDS011;4038;42.612;23.066;2023-10-08T11:32:11;23.42;;;21.42;;
7985;SDS011;4038;42.612;23.066;2023-10-08T11:34:38;23.27;;;21.40;;
7985;SDS011;4038;42.612;23.066;2023-10-08T11:37:04;23.35;;;21.42;;
7985;SDS011;4038;42.612;23.066;2023-10-08T11:39:44;22.95;;;21.05;;
7985;SDS011;4038;42.612;23.066;2023-10-08T11:42:11;24.05;;;22.10;;
7985;SDS011;4038;42.612;23.066;2023-10-08T11:44:55;23.55;;;21.27;;
7985;SDS011;4038;42.612;23.066;2023-10-08T11:47:24;23.77;;;21.60;;
7985;SDS011;4038;42.612;23.066;2023-10-08T11:50:00;23.90;;;21.73;;
7985;SDS011;4038;42.612;23.066;2023-10-08T11:52:38;23.70;;;21.80;;
7985;SDS011;4038;42.612;23.066;2023-10-08T11:55:07;24.02;;;22.15;;
7985;SDS011;4038;42.612;23.066;2023-10-08T11:57:34;24.33;;;22.23;;
7985;SDS011;4038;42.612;23.066;2023-10-08T12:00:03;24.45;;;22.13;;
7985;SDS011;4038;42.612;23.066;2023-10-08T12:02:44;23.65;;;21.38;;
7985;SDS011;4038;42.612;23.066;2023-10-08T12:05:21;23.90;;;21.67;;
7985;SDS011;4038;42.612;23.066;2023-10-08T12:07:53;23.90;;;21.70;;
7985;SDS011;4038;42.612;23.066;2023-10-08T12:10:23;25.23;;;22.35;;
7985;SDS011;4038;42.612;23.066;2023-10-08T12:12:49;24.00;;;21.70;;
7985;SDS011;4038;42.612;23.066;2023-10-08T12:15:17;23.23;;;21.23;;
7985;SDS011;4038;42.612;23.066;2023-10-08T12:17:50;23.83;;;21.45;;
7985;SDS011;4038;42.612;23.066;2023-10-08T12:20:42;23.67;;;21.58;;
7985;SDS011;4038;42.612;23.066;2023-10-08T12:23:11;23.80;;;21.83;;
7985;SDS011;4038;42.612;23.066;2023-10-08T12:25:43;23.10;;;21.08;;
7985;SDS011;4038;42.612;23.066;2023-10-08T12:28:16;25.10;;;22.63;;
7985;SDS011;4038;42.612;23.066;2023-10-08T12:30:44;32.88;;;22.33;;
7985;SDS011;4038;42.612;23.066;2023-10-08T12:33:10;23.77;;;21.60;;
7985;SDS011;4038;42.612;23.066;2023-10-08T12:35:40;23.60;;;21.25;;
7985;SDS011;4038;42.612;23.066;2023-10-08T12:38:06;24.48;;;21.95;;
7985;SDS011;4038;42.612;23.066;2023-10-08T12:40:34;24.13;;;22.13;;
7985;SDS011;4038;42.612;23.066;2023-10-08T12:43:13;23.67;;;21.73;;
7985;SDS011;4038;42.612;23.066;2023-10-08T12:45:44;25.48;;;22.02;;
7985;SDS011;4038;42.612;23.066;2023-10-08T12:48:22;24.65;;;22.17;;
7985;SDS011;4038;42.612;23.066;2023-10-08T12:50:49;24.42;;;22.45;;
7985;SDS011;4038;42.612;23.066;2023-10-08T12:53:21;26.70;;;22.08;;
7985;SDS011;4038;42.612;23.066;2023-10-08T12:55:52;23.45;;;21.55;;
7985;SDS011;4038;42.612;23.066;2023-10-08T12:58:21;24.75;;;22.10;;
7985;SDS011;4038;42.612;23.066;2023-10-08T13:00:54;23.73;;;21.55;;
7985;SDS011;4038;42.612;23.066;2023-10-08T13:03:26;23.23;;;21.58;;
7985;SDS011;4038;42.612;23.066;2023-10-08T13:05:55;23.63;;;21.52;;
7985;SDS011;4038;42.612;23.066;2023-10-08T13:08:29;23.55;;;21.48;;
7985;SDS011;4038;42.612;23.066;2023-10-08T13:10:56;22.27;;;20.58;;
7985;SDS011;4038;42.612;23.066;2023-10-08T13:13:29;23.25;;;21.02;;
7985;SDS011;4038;42.612;23.066;2023-10-08T13:15:55;22.50;;;20.55;;
7985;SDS011;4038;42.612;23.066;2023-10-08T13:18:23;26.42;;;21.33;;
7985;SDS011;4038;42.612;23.066;2023-10-08T13:20:51;24.83;;;22.58;;
7985;SDS011;4038;42.612;23.066;2023-10-08T13:23:17;23.73;;;21.50;;
7985;SDS011;4038;42.612;23.066;2023-10-08T13:25:48;23.70;;;21.63;;
7985;SDS011;4038;42.612;23.066;2023-10-08T13:28:19;25.45;;;23.13;;
7985;SDS011;4038;42.612;23.066;2023-10-08T13:30:46;24.52;;;22.27;;
7985;SDS011;4038;42.612;23.066;2023-10-08T13:33:12;24.08;;;21.80;;
7985;SDS011;4038;42.612;23.066;2023-10-08T13:35:37;23.88;;;21.85;;
7985;SDS011;4038;42.612;23.066;2023-10-08T13:38:03;24.52;;;22.17;;
7985;SDS011;4038;42.612;23.066;2023-10-08T13:40:34;24.35;;;22.10;;
7985;SDS011;4038;42.612;23.066;2023-10-08T13:43:05;24.33;;;21.88;;
7985;SDS011;4038;42.612;23.066;2023-10-08T13:45:31;23.73;;;21.73;;
7985;SDS011;4038;42.612;23.066;2023-10-08T13:47:58;23.42;;;21.48;;
7985;SDS011;4038;42.612;23.066;2023-10-08T13:50:26;23.83;;;21.85;;
7985;SDS011;4038;42.612;23.066;2023-10-08T13:52:55;22.95;;;20.90;;
7985;SDS011;4038;42.612;23.066;2023-10-08T13:55:20;24.52;;;22.08;;
7985;SDS011;4038;42.612;23.066;2023-10-08T13:57:50;24.92;;;22.73;;
7985;SDS011;4038;42.612;23.066;2023-10-08T14:00:19;23.75;;;21.80;;
7985;SDS011;4038;42.612;23.066;2023-10-08T14:02:51;23.85;;;21.77;;
7985;SDS011;4038;42.612;23.066;2023-10-08T14:05:18;24.13;;;21.95;;
7985;SDS011;4038;42.612;23.066;2023-10-08T14:07:48;23.52;;;21.30;;
7985;SDS011;4038;42.612;23.066;2023-10-08T14:10:15;23.25;;;21.25;;
7985;SDS011;4038;42.612;23.066;2023-10-08T14:12:44;24.25;;;21.88;;
7985;SDS011;4038;42.612;23.066;2023-10-08T14:15:14;24.27;;;21.85;;
7985;SDS011;4038;42.612;23.066;2023-10-08T14:17:43;24.13;;;21.90;;
7985;SDS011;4038;42.612;23.066;2023-10-08T14:20:13;24.70;;;22.25;;
7985;SDS011;4038;42.612;23.066;2023-10-08T14:22:41;24.02;;;22.13;;
7985;SDS011;4038;42.612;23.066;2023-10-08T14:25:10;24.40;;;22.48;;
7985;SDS011;4038;42.612;23.066;2023-10-08T14:27:40;25.35;;;23.00;;
7985;SDS011;4038;42.612;23.066;2023-10-08T14:30:06;24.23;;;22.05;;
7985;SDS011;4038;42.612;23.066;2023-10-08T14:32:40;24.42;;;22.20;;
7985;SDS011;4038;42.612;23.066;2023-10-08T14:35:11;25.10;;;22.70;;
7985;SDS011;4038;42.612;23.066;2023-10-08T14:37:57;25.70;;;23.17;;
7985;SDS011;4038;42.612;23.066;2023-10-08T14:40:42;24.27;;;22.00;;
7985;SDS011;4038;42.612;23.066;2023-10-08T14:43:26;24.23;;;22.15;;
7985;SDS011;4038;42.612;23.066;2023-10-08T14:45:54;23.92;;;21.67;;
7985;SDS011;4038;42.612;23.066;2023-10-08T14:48:19;25.20;;;22.00;;
7985;SDS011;4038;42.612;23.066;2023-10-08T14:50:45;23.63;;;21.50;;
7985;SDS011;4038;42.612;23.066;2023-10-08T14:53:12;23.73;;;21.60;;
7985;SDS011;4038;42.612;23.066;2023-10-08T14:55:37;23.50;;;21.38;;
7985;SDS011;4038;42.612;23.066;2023-10-08T14:58:06;23.70;;;21.38;;
7985;SDS011;4038;42.612;23.066;2023-10-08T15:00:36;25.58;;;23.08;;
7985;SDS011;4038;42.612;23.066;2023-10-08T15:03:02;24.02;;;21.80;;